sensor_id;sensor_type;location;lat;lon;timestamp;temperature;humidity
77104;DHT22;66052;43.498;3.710;2022-12-20T00:01:14;14.00;83.40
77104;DHT22;66052;43.498;3.710;2022-12-20T00:03:42;14.00;83.40
77104;DHT22;66052;43.498;3.710;2022-12-20T00:06:09;14.00;83.10
77104;DHT22;66052;43.498;3.710;2022-12-20T00:08:36;14.00;82.80
77104;DHT22;66052;43.498;3.710;2022-12-20T00:11:03;14.00;82.80
77104;DHT22;66052;43.498;3.710;2022-12-20T00:13:30;14.00;83.20
77104;DHT22;66052;43.498;3.710;2022-12-20T00:16:03;14.00;83.40
77104;DHT22;66052;43.498;3.710;2022-12-20T00:18:29;14.00;83.60
77104;DHT22;66052;43.498;3.710;2022-12-20T00:20:59;14.00;83.50
77104;DHT22;66052;43.498;3.710;2022-12-20T00:23:25;14.10;83.40
77104;DHT22;66052;43.498;3.710;2022-12-20T00:25:51;14.00;83.60
77104;DHT22;66052;43.498;3.710;2022-12-20T00:28:16;14.00;83.70
77104;DHT22;66052;43.498;3.710;2022-12-20T00:30:42;14.00;84.00
77104;DHT22;66052;43.498;3.710;2022-12-20T00:33:08;14.10;83.90
77104;DHT22;66052;43.498;3.710;2022-12-20T00:35:34;14.00;83.90
77104;DHT22;66052;43.498;3.710;2022-12-20T00:38:00;14.10;83.20
77104;DHT22;66052;43.498;3.710;2022-12-20T00:40:25;14.10;83.20
77104;DHT22;66052;43.498;3.710;2022-12-20T00:42:51;14.00;83.40
77104;DHT22;66052;43.498;3.710;2022-12-20T00:45:17;14.10;83.60
77104;DHT22;66052;43.498;3.710;2022-12-20T00:47:42;14.10;84.10
77104;DHT22;66052;43.498;3.710;2022-12-20T00:50:08;14.10;84.40
77104;DHT22;66052;43.498;3.710;2022-12-20T00:52:34;14.10;84.50
77104;DHT22;66052;43.498;3.710;2022-12-20T00:54:59;14.10;85.10
77104;DHT22;66052;43.498;3.710;2022-12-20T00:57:25;14.00;84.90
77104;DHT22;66052;43.498;3.710;2022-12-20T00:59:50;14.00;85.60
77104;DHT22;66052;43.498;3.710;2022-12-20T01:02:16;14.10;85.80
77104;DHT22;66052;43.498;3.710;2022-12-20T01:04:42;14.20;85.70
77104;DHT22;66052;43.498;3.710;2022-12-20T01:07:07;14.30;85.60
77104;DHT22;66052;43.498;3.710;2022-12-20T01:09:33;14.20;85.60
77104;DHT22;66052;43.498;3.710;2022-12-20T01:11:59;14.20;85.70
77104;DHT22;66052;43.498;3.710;2022-12-20T01:14:24;14.20;85.80
77104;DHT22;66052;43.498;3.710;2022-12-20T01:16:50;14.10;85.70
77104;DHT22;66052;43.498;3.710;2022-12-20T01:19:17;14.20;85.50
77104;DHT22;66052;43.498;3.710;2022-12-20T01:21:43;14.20;85.40
77104;DHT22;66052;43.498;3.710;2022-12-20T01:24:11;14.20;85.30
77104;DHT22;66052;43.498;3.710;2022-12-20T01:26:36;14.20;85.30
77104;DHT22;66052;43.498;3.710;2022-12-20T01:29:03;14.20;85.30
77104;DHT22;66052;43.498;3.710;2022-12-20T01:31:29;14.10;85.60
77104;DHT22;66052;43.498;3.710;2022-12-20T01:33:55;14.10;85.90
77104;DHT22;66052;43.498;3.710;2022-12-20T01:36:26;14.10;86.00
77104;DHT22;66052;43.498;3.710;2022-12-20T01:38:57;14.10;86.00
77104;DHT22;66052;43.498;3.710;2022-12-20T01:41:23;14.20;85.70
77104;DHT22;66052;43.498;3.710;2022-12-20T01:46:20;14.10;86.30
77104;DHT22;66052;43.498;3.710;2022-12-20T01:51:42;14.20;85.40
77104;DHT22;66052;43.498;3.710;2022-12-20T01:54:16;14.20;85.70
77104;DHT22;66052;43.498;3.710;2022-12-20T01:56:46;14.20;85.80
77104;DHT22;66052;43.498;3.710;2022-12-20T01:59:13;14.20;85.90
77104;DHT22;66052;43.498;3.710;2022-12-20T02:01:41;14.20;86.00
77104;DHT22;66052;43.498;3.710;2022-12-20T02:04:06;14.20;86.00
77104;DHT22;66052;43.498;3.710;2022-12-20T02:06:32;14.10;86.30
77104;DHT22;66052;43.498;3.710;2022-12-20T02:08:59;14.10;86.30
77104;DHT22;66052;43.498;3.710;2022-12-20T02:16:30;14.20;86.40
77104;DHT22;66052;43.498;3.710;2022-12-20T02:21:59;14.20;86.20
77104;DHT22;66052;43.498;3.710;2022-12-20T02:24:38;14.20;86.20
77104;DHT22;66052;43.498;3.710;2022-12-20T02:27:38;14.10;86.50
77104;DHT22;66052;43.498;3.710;2022-12-20T02:32:50;14.00;86.70
77104;DHT22;66052;43.498;3.710;2022-12-20T02:35:22;14.10;86.70
77104;DHT22;66052;43.498;3.710;2022-12-20T02:37:59;14.10;86.70
77104;DHT22;66052;43.498;3.710;2022-12-20T02:40:39;14.20;86.40
77104;DHT22;66052;43.498;3.710;2022-12-20T02:43:08;14.20;86.10
77104;DHT22;66052;43.498;3.710;2022-12-20T02:45:54;14.20;85.90
77104;DHT22;66052;43.498;3.710;2022-12-20T02:48:24;14.10;85.90
77104;DHT22;66052;43.498;3.710;2022-12-20T02:50:53;14.10;86.10
77104;DHT22;66052;43.498;3.710;2022-12-20T02:53:21;14.10;86.20
77104;DHT22;66052;43.498;3.710;2022-12-20T02:56:13;14.10;86.20
77104;DHT22;66052;43.498;3.710;2022-12-20T03:01:52;14.10;86.40
77104;DHT22;66052;43.498;3.710;2022-12-20T03:04:22;14.00;86.60
77104;DHT22;66052;43.498;3.710;2022-12-20T03:07:11;14.10;86.50
77104;DHT22;66052;43.498;3.710;2022-12-20T03:09:40;14.20;86.40
77104;DHT22;66052;43.498;3.710;2022-12-20T03:12:06;14.10;86.30
77104;DHT22;66052;43.498;3.710;2022-12-20T03:14:32;14.10;86.60
77104;DHT22;66052;43.498;3.710;2022-12-20T03:16:58;14.00;86.80
77104;DHT22;66052;43.498;3.710;2022-12-20T03:19:24;14.00;86.80
77104;DHT22;66052;43.498;3.710;2022-12-20T03:21:50;14.10;86.80
77104;DHT22;66052;43.498;3.710;2022-12-20T03:24:16;14.10;86.50
77104;DHT22;66052;43.498;3.710;2022-12-20T03:26:42;14.10;86.50
77104;DHT22;66052;43.498;3.710;2022-12-20T03:29:08;14.10;86.50
77104;DHT22;66052;43.498;3.710;2022-12-20T03:31:35;14.20;86.40
77104;DHT22;66052;43.498;3.710;2022-12-20T03:34:01;14.20;86.30
77104;DHT22;66052;43.498;3.710;2022-12-20T03:36:27;14.20;86.30
77104;DHT22;66052;43.498;3.710;2022-12-20T03:38:53;14.20;86.30
77104;DHT22;66052;43.498;3.710;2022-12-20T03:41:20;14.20;86.30
77104;DHT22;66052;43.498;3.710;2022-12-20T03:43:48;14.20;86.30
77104;DHT22;66052;43.498;3.710;2022-12-20T03:46:14;14.20;86.40
77104;DHT22;66052;43.498;3.710;2022-12-20T03:48:40;14.10;86.20
77104;DHT22;66052;43.498;3.710;2022-12-20T03:51:06;14.20;86.30
77104;DHT22;66052;43.498;3.710;2022-12-20T03:53:31;14.20;86.20
77104;DHT22;66052;43.498;3.710;2022-12-20T03:55:58;14.20;86.30
77104;DHT22;66052;43.498;3.710;2022-12-20T03:58:23;14.20;86.30
77104;DHT22;66052;43.498;3.710;2022-12-20T04:00:49;14.20;86.20
77104;DHT22;66052;43.498;3.710;2022-12-20T04:03:15;14.10;86.40
77104;DHT22;66052;43.498;3.710;2022-12-20T04:05:40;14.10;86.50
77104;DHT22;66052;43.498;3.710;2022-12-20T04:08:06;14.00;86.70
77104;DHT22;66052;43.498;3.710;2022-12-20T04:10:32;14.10;86.60
77104;DHT22;66052;43.498;3.710;2022-12-20T04:13:18;14.20;86.10
77104;DHT22;66052;43.498;3.710;2022-12-20T04:15:43;14.20;86.00
77104;DHT22;66052;43.498;3.710;2022-12-20T04:18:09;14.20;86.20
77104;DHT22;66052;43.498;3.710;2022-12-20T04:20:34;14.20;86.30
77104;DHT22;66052;43.498;3.710;2022-12-20T04:23:00;14.20;86.40
77104;DHT22;66052;43.498;3.710;2022-12-20T04:25:26;14.20;86.60
77104;DHT22;66052;43.498;3.710;2022-12-20T04:27:51;14.20;86.60
77104;DHT22;66052;43.498;3.710;2022-12-20T04:30:17;14.30;86.40
77104;DHT22;66052;43.498;3.710;2022-12-20T04:32:43;14.30;86.10
77104;DHT22;66052;43.498;3.710;2022-12-20T04:35:09;14.20;86.30
77104;DHT22;66052;43.498;3.710;2022-12-20T04:37:35;14.10;86.60
77104;DHT22;66052;43.498;3.710;2022-12-20T04:40:00;14.20;86.40
77104;DHT22;66052;43.498;3.710;2022-12-20T04:42:26;14.30;86.10
77104;DHT22;66052;43.498;3.710;2022-12-20T04:44:52;14.20;86.10
77104;DHT22;66052;43.498;3.710;2022-12-20T04:47:17;14.30;86.00
77104;DHT22;66052;43.498;3.710;2022-12-20T04:49:43;14.30;86.00
77104;DHT22;66052;43.498;3.710;2022-12-20T04:52:09;14.30;86.00
77104;DHT22;66052;43.498;3.710;2022-12-20T04:54:53;14.30;86.00
77104;DHT22;66052;43.498;3.710;2022-12-20T04:57:19;14.30;86.00
77104;DHT22;66052;43.498;3.710;2022-12-20T04:59:44;14.30;86.00
77104;DHT22;66052;43.498;3.710;2022-12-20T05:02:10;14.30;86.00
77104;DHT22;66052;43.498;3.710;2022-12-20T05:04:36;14.30;86.20
77104;DHT22;66052;43.498;3.710;2022-12-20T05:07:01;14.30;86.20
77104;DHT22;66052;43.498;3.710;2022-12-20T05:09:27;14.20;86.20
77104;DHT22;66052;43.498;3.710;2022-12-20T05:11:53;14.20;86.30
77104;DHT22;66052;43.498;3.710;2022-12-20T05:14:18;14.30;86.20
77104;DHT22;66052;43.498;3.710;2022-12-20T05:16:44;14.30;86.10
77104;DHT22;66052;43.498;3.710;2022-12-20T05:19:10;14.30;86.10
77104;DHT22;66052;43.498;3.710;2022-12-20T05:21:35;14.30;86.10
77104;DHT22;66052;43.498;3.710;2022-12-20T05:24:20;14.30;86.20
77104;DHT22;66052;43.498;3.710;2022-12-20T05:27:04;14.30;86.20
77104;DHT22;66052;43.498;3.710;2022-12-20T05:29:30;14.30;86.10
77104;DHT22;66052;43.498;3.710;2022-12-20T05:31:55;14.30;86.20
77104;DHT22;66052;43.498;3.710;2022-12-20T05:34:21;14.30;86.20
77104;DHT22;66052;43.498;3.710;2022-12-20T05:36:47;14.30;86.20
77104;DHT22;66052;43.498;3.710;2022-12-20T05:39:12;14.20;86.30
77104;DHT22;66052;43.498;3.710;2022-12-20T05:41:38;14.10;86.50
77104;DHT22;66052;43.498;3.710;2022-12-20T05:44:05;14.10;86.50
77104;DHT22;66052;43.498;3.710;2022-12-20T05:46:31;13.90;87.00
77104;DHT22;66052;43.498;3.710;2022-12-20T05:48:57;14.00;87.20
77104;DHT22;66052;43.498;3.710;2022-12-20T05:51:23;14.20;86.50
77104;DHT22;66052;43.498;3.710;2022-12-20T05:53:49;14.20;86.30
77104;DHT22;66052;43.498;3.710;2022-12-20T05:56:15;14.20;86.20
77104;DHT22;66052;43.498;3.710;2022-12-20T05:58:41;14.10;86.50
77104;DHT22;66052;43.498;3.710;2022-12-20T06:01:07;14.20;86.40
77104;DHT22;66052;43.498;3.710;2022-12-20T06:03:33;14.20;86.30
77104;DHT22;66052;43.498;3.710;2022-12-20T06:05:58;14.20;86.40
77104;DHT22;66052;43.498;3.710;2022-12-20T06:08:24;14.10;86.50
77104;DHT22;66052;43.498;3.710;2022-12-20T06:10:50;14.20;86.60
77104;DHT22;66052;43.498;3.710;2022-12-20T06:13:17;14.20;86.40
77104;DHT22;66052;43.498;3.710;2022-12-20T06:15:43;14.20;86.20
77104;DHT22;66052;43.498;3.710;2022-12-20T06:18:08;14.20;86.40
77104;DHT22;66052;43.498;3.710;2022-12-20T06:20:36;14.20;86.20
77104;DHT22;66052;43.498;3.710;2022-12-20T06:23:02;14.20;86.30
77104;DHT22;66052;43.498;3.710;2022-12-20T06:25:29;14.20;86.40
77104;DHT22;66052;43.498;3.710;2022-12-20T06:27:55;14.20;86.40
77104;DHT22;66052;43.498;3.710;2022-12-20T06:30:21;14.10;86.60
77104;DHT22;66052;43.498;3.710;2022-12-20T06:32:47;14.10;86.60
77104;DHT22;66052;43.498;3.710;2022-12-20T06:35:12;14.10;86.60
77104;DHT22;66052;43.498;3.710;2022-12-20T06:37:39;14.10;86.60
77104;DHT22;66052;43.498;3.710;2022-12-20T06:40:07;14.10;86.40
77104;DHT22;66052;43.498;3.710;2022-12-20T06:42:33;14.10;86.30
77104;DHT22;66052;43.498;3.710;2022-12-20T06:44:58;14.00;86.60
77104;DHT22;66052;43.498;3.710;2022-12-20T06:47:24;14.00;86.50
77104;DHT22;66052;43.498;3.710;2022-12-20T06:49:50;13.90;86.70
77104;DHT22;66052;43.498;3.710;2022-12-20T06:52:15;14.00;86.70
77104;DHT22;66052;43.498;3.710;2022-12-20T06:54:41;14.10;86.40
77104;DHT22;66052;43.498;3.710;2022-12-20T06:57:07;14.00;86.50
77104;DHT22;66052;43.498;3.710;2022-12-20T06:59:33;14.10;86.30
77104;DHT22;66052;43.498;3.710;2022-12-20T07:01:59;14.20;86.20
77104;DHT22;66052;43.498;3.710;2022-12-20T07:04:25;14.20;86.10
77104;DHT22;66052;43.498;3.710;2022-12-20T07:06:51;14.20;86.00
77104;DHT22;66052;43.498;3.710;2022-12-20T07:09:17;14.30;86.00
77104;DHT22;66052;43.498;3.710;2022-12-20T07:11:43;14.30;86.00
77104;DHT22;66052;43.498;3.710;2022-12-20T07:14:09;14.30;85.90
77104;DHT22;66052;43.498;3.710;2022-12-20T07:16:35;14.30;85.90
77104;DHT22;66052;43.498;3.710;2022-12-20T07:19:02;14.30;86.00
77104;DHT22;66052;43.498;3.710;2022-12-20T07:21:27;14.30;86.00
77104;DHT22;66052;43.498;3.710;2022-12-20T07:23:56;14.30;86.10
77104;DHT22;66052;43.498;3.710;2022-12-20T07:26:22;14.30;86.30
77104;DHT22;66052;43.498;3.710;2022-12-20T07:28:48;14.20;86.50
77104;DHT22;66052;43.498;3.710;2022-12-20T07:31:13;14.30;86.50
77104;DHT22;66052;43.498;3.710;2022-12-20T07:33:39;14.30;86.40
77104;DHT22;66052;43.498;3.710;2022-12-20T07:36:08;14.30;86.20
77104;DHT22;66052;43.498;3.710;2022-12-20T07:38:34;14.30;86.10
77104;DHT22;66052;43.498;3.710;2022-12-20T07:41:07;14.30;86.00
77104;DHT22;66052;43.498;3.710;2022-12-20T07:43:33;14.40;86.00
77104;DHT22;66052;43.498;3.710;2022-12-20T07:45:59;14.30;86.00
77104;DHT22;66052;43.498;3.710;2022-12-20T07:48:24;14.40;85.80
77104;DHT22;66052;43.498;3.710;2022-12-20T07:50:52;14.30;85.80
77104;DHT22;66052;43.498;3.710;2022-12-20T07:53:20;14.40;85.70
77104;DHT22;66052;43.498;3.710;2022-12-20T07:55:47;14.40;85.80
77104;DHT22;66052;43.498;3.710;2022-12-20T07:58:14;14.40;85.60
77104;DHT22;66052;43.498;3.710;2022-12-20T08:00:40;14.40;85.60
77104;DHT22;66052;43.498;3.710;2022-12-20T08:03:14;14.50;85.40
77104;DHT22;66052;43.498;3.710;2022-12-20T08:05:43;14.40;85.60
77104;DHT22;66052;43.498;3.710;2022-12-20T08:08:11;14.40;85.80
77104;DHT22;66052;43.498;3.710;2022-12-20T08:10:37;14.40;85.80
77104;DHT22;66052;43.498;3.710;2022-12-20T08:13:04;14.40;85.50
77104;DHT22;66052;43.498;3.710;2022-12-20T08:15:30;14.50;85.70
77104;DHT22;66052;43.498;3.710;2022-12-20T08:17:58;14.50;85.50
77104;DHT22;66052;43.498;3.710;2022-12-20T08:20:23;14.50;85.40
77104;DHT22;66052;43.498;3.710;2022-12-20T08:22:49;14.50;85.30
77104;DHT22;66052;43.498;3.710;2022-12-20T08:25:15;14.50;85.40
77104;DHT22;66052;43.498;3.710;2022-12-20T08:27:41;14.50;85.20
77104;DHT22;66052;43.498;3.710;2022-12-20T08:30:07;14.50;85.30
77104;DHT22;66052;43.498;3.710;2022-12-20T08:32:35;14.50;85.40
77104;DHT22;66052;43.498;3.710;2022-12-20T08:35:00;14.50;85.30
77104;DHT22;66052;43.498;3.710;2022-12-20T08:37:26;14.50;85.30
77104;DHT22;66052;43.498;3.710;2022-12-20T08:39:52;14.50;85.30
77104;DHT22;66052;43.498;3.710;2022-12-20T08:42:17;14.60;85.10
77104;DHT22;66052;43.498;3.710;2022-12-20T08:44:43;14.60;84.90
77104;DHT22;66052;43.498;3.710;2022-12-20T08:47:09;14.60;85.00
77104;DHT22;66052;43.498;3.710;2022-12-20T08:49:35;14.70;84.90
77104;DHT22;66052;43.498;3.710;2022-12-20T08:52:01;14.80;84.60
77104;DHT22;66052;43.498;3.710;2022-12-20T08:54:27;14.80;84.40
77104;DHT22;66052;43.498;3.710;2022-12-20T08:56:53;14.90;84.00
77104;DHT22;66052;43.498;3.710;2022-12-20T08:59:18;15.00;83.90
77104;DHT22;66052;43.498;3.710;2022-12-20T09:01:44;15.10;83.40
77104;DHT22;66052;43.498;3.710;2022-12-20T09:04:10;15.20;83.10
77104;DHT22;66052;43.498;3.710;2022-12-20T09:06:37;15.20;83.10
77104;DHT22;66052;43.498;3.710;2022-12-20T09:09:04;15.20;83.20
77104;DHT22;66052;43.498;3.710;2022-12-20T09:11:30;15.20;83.10
77104;DHT22;66052;43.498;3.710;2022-12-20T09:13:57;15.10;83.00
77104;DHT22;66052;43.498;3.710;2022-12-20T09:16:24;15.20;83.10
77104;DHT22;66052;43.498;3.710;2022-12-20T09:18:52;15.10;83.00
77104;DHT22;66052;43.498;3.710;2022-12-20T09:21:19;15.10;82.90
77104;DHT22;66052;43.498;3.710;2022-12-20T09:23:45;15.20;82.90
77104;DHT22;66052;43.498;3.710;2022-12-20T09:26:13;15.10;82.60
77104;DHT22;66052;43.498;3.710;2022-12-20T09:28:40;15.20;82.60
77104;DHT22;66052;43.498;3.710;2022-12-20T09:31:09;15.20;82.70
77104;DHT22;66052;43.498;3.710;2022-12-20T09:33:35;15.20;82.50
77104;DHT22;66052;43.498;3.710;2022-12-20T09:36:02;15.30;82.40
77104;DHT22;66052;43.498;3.710;2022-12-20T09:38:29;15.20;82.50
77104;DHT22;66052;43.498;3.710;2022-12-20T09:40:58;15.20;82.20
77104;DHT22;66052;43.498;3.710;2022-12-20T09:43:24;15.20;82.40
77104;DHT22;66052;43.498;3.710;2022-12-20T09:45:55;15.30;82.20
77104;DHT22;66052;43.498;3.710;2022-12-20T09:48:42;15.30;82.00
77104;DHT22;66052;43.498;3.710;2022-12-20T09:56:43;15.50;81.80
77104;DHT22;66052;43.498;3.710;2022-12-20T09:59:17;15.50;81.50
77104;DHT22;66052;43.498;3.710;2022-12-20T10:01:45;15.50;81.60
77104;DHT22;66052;43.498;3.710;2022-12-20T10:04:25;15.60;81.40
77104;DHT22;66052;43.498;3.710;2022-12-20T10:18:55;15.80;81.00
77104;DHT22;66052;43.498;3.710;2022-12-20T10:24:04;15.90;80.50
77104;DHT22;66052;43.498;3.710;2022-12-20T10:26:33;15.90;80.40
77104;DHT22;66052;43.498;3.710;2022-12-20T10:28:58;16.00;80.00
77104;DHT22;66052;43.498;3.710;2022-12-20T10:31:24;15.80;80.30
77104;DHT22;66052;43.498;3.710;2022-12-20T10:33:50;15.90;80.30
77104;DHT22;66052;43.498;3.710;2022-12-20T10:36:33;16.00;80.30
77104;DHT22;66052;43.498;3.710;2022-12-20T10:39:02;16.20;79.70
77104;DHT22;66052;43.498;3.710;2022-12-20T10:41:31;16.30;79.20
77104;DHT22;66052;43.498;3.710;2022-12-20T10:46:39;16.30;79.00
77104;DHT22;66052;43.498;3.710;2022-12-20T10:49:35;16.20;79.10
77104;DHT22;66052;43.498;3.710;2022-12-20T10:54:35;16.10;79.30
77104;DHT22;66052;43.498;3.710;2022-12-20T10:57:23;16.30;79.30
77104;DHT22;66052;43.498;3.710;2022-12-20T11:00:02;16.20;79.20
77104;DHT22;66052;43.498;3.710;2022-12-20T11:05:43;16.30;79.20
77104;DHT22;66052;43.498;3.710;2022-12-20T11:07:59;16.30;79.10
77104;DHT22;66052;43.498;3.710;2022-12-20T11:10:31;16.20;78.80
77104;DHT22;66052;43.498;3.710;2022-12-20T11:13:01;16.20;79.10
77104;DHT22;66052;43.498;3.710;2022-12-20T11:15:28;16.20;78.70
77104;DHT22;66052;43.498;3.710;2022-12-20T11:18:05;16.20;78.90
77104;DHT22;66052;43.498;3.710;2022-12-20T11:26:04;16.00;79.80
77104;DHT22;66052;43.498;3.710;2022-12-20T11:42:03;15.80;79.90
77104;DHT22;66052;43.498;3.710;2022-12-20T11:44:43;15.80;80.40
77104;DHT22;66052;43.498;3.710;2022-12-20T11:47:28;15.80;80.70
77104;DHT22;66052;43.498;3.710;2022-12-20T11:52:51;15.80;80.40
77104;DHT22;66052;43.498;3.710;2022-12-20T11:55:35;15.80;80.30
77104;DHT22;66052;43.498;3.710;2022-12-20T12:01:07;15.80;80.50
77104;DHT22;66052;43.498;3.710;2022-12-20T12:03:58;15.90;80.30
77104;DHT22;66052;43.498;3.710;2022-12-20T12:06:29;15.80;80.60
77104;DHT22;66052;43.498;3.710;2022-12-20T12:11:39;15.90;80.40
77104;DHT22;66052;43.498;3.710;2022-12-20T12:14:13;15.90;80.40
77104;DHT22;66052;43.498;3.710;2022-12-20T12:16:44;16.00;80.40
77104;DHT22;66052;43.498;3.710;2022-12-20T12:19:12;16.10;79.90
77104;DHT22;66052;43.498;3.710;2022-12-20T12:22:01;16.00;79.90
77104;DHT22;66052;43.498;3.710;2022-12-20T12:24:37;16.00;79.80
77104;DHT22;66052;43.498;3.710;2022-12-20T12:27:14;16.10;79.30
77104;DHT22;66052;43.498;3.710;2022-12-20T12:29:42;16.10;79.20
77104;DHT22;66052;43.498;3.710;2022-12-20T12:32:18;16.10;79.30
77104;DHT22;66052;43.498;3.710;2022-12-20T12:37:38;15.90;80.30
77104;DHT22;66052;43.498;3.710;2022-12-20T12:45:15;16.00;79.90
77104;DHT22;66052;43.498;3.710;2022-12-20T12:47:48;15.90;80.50
77104;DHT22;66052;43.498;3.710;2022-12-20T12:50:24;15.90;80.40
77104;DHT22;66052;43.498;3.710;2022-12-20T12:52:56;15.90;80.50
77104;DHT22;66052;43.498;3.710;2022-12-20T12:55:41;15.90;80.20
77104;DHT22;66052;43.498;3.710;2022-12-20T13:03:41;15.90;80.50
77104;DHT22;66052;43.498;3.710;2022-12-20T13:16:46;15.70;80.70
77104;DHT22;66052;43.498;3.710;2022-12-20T13:19:18;15.70;80.90
77104;DHT22;66052;43.498;3.710;2022-12-20T13:22:14;15.70;80.60
77104;DHT22;66052;43.498;3.710;2022-12-20T13:38:51;15.60;81.10
77104;DHT22;66052;43.498;3.710;2022-12-20T13:40:57;15.60;81.20
77104;DHT22;66052;43.498;3.710;2022-12-20T13:43:35;15.50;80.90
77104;DHT22;66052;43.498;3.710;2022-12-20T13:51:03;15.60;80.30
77104;DHT22;66052;43.498;3.710;2022-12-20T13:53:29;15.60;80.20
77104;DHT22;66052;43.498;3.710;2022-12-20T13:55:56;15.60;80.40
77104;DHT22;66052;43.498;3.710;2022-12-20T13:58:25;15.50;80.10
77104;DHT22;66052;43.498;3.710;2022-12-20T14:00:53;15.50;80.30
77104;DHT22;66052;43.498;3.710;2022-12-20T14:03:23;15.40;80.40
77104;DHT22;66052;43.498;3.710;2022-12-20T14:05:55;15.50;80.60
77104;DHT22;66052;43.498;3.710;2022-12-20T14:08:26;15.50;80.80
77104;DHT22;66052;43.498;3.710;2022-12-20T14:10:53;15.50;81.00
77104;DHT22;66052;43.498;3.710;2022-12-20T14:13:22;15.40;81.00
77104;DHT22;66052;43.498;3.710;2022-12-20T14:15:48;15.30;81.30
77104;DHT22;66052;43.498;3.710;2022-12-20T14:18:20;15.30;81.60
77104;DHT22;66052;43.498;3.710;2022-12-20T14:20:57;15.30;82.10
77104;DHT22;66052;43.498;3.710;2022-12-20T14:23:26;15.20;82.30
77104;DHT22;66052;43.498;3.710;2022-12-20T14:25:57;15.20;82.40
77104;DHT22;66052;43.498;3.710;2022-12-20T14:28:33;15.20;82.10
77104;DHT22;66052;43.498;3.710;2022-12-20T14:31:00;15.10;82.40
77104;DHT22;66052;43.498;3.710;2022-12-20T14:33:40;15.10;82.90
77104;DHT22;66052;43.498;3.710;2022-12-20T14:36:26;15.10;82.70
77104;DHT22;66052;43.498;3.710;2022-12-20T14:38:52;15.10;82.70
77104;DHT22;66052;43.498;3.710;2022-12-20T14:43:59;15.10;82.30
77104;DHT22;66052;43.498;3.710;2022-12-20T14:46:26;15.10;82.10
77104;DHT22;66052;43.498;3.710;2022-12-20T14:51:47;15.00;82.50
77104;DHT22;66052;43.498;3.710;2022-12-20T14:54:26;15.00;82.60
77104;DHT22;66052;43.498;3.710;2022-12-20T14:56:53;15.00;82.80
77104;DHT22;66052;43.498;3.710;2022-12-20T14:59:27;14.90;82.90
77104;DHT22;66052;43.498;3.710;2022-12-20T15:01:53;15.00;83.00
77104;DHT22;66052;43.498;3.710;2022-12-20T15:04:31;14.90;83.00
77104;DHT22;66052;43.498;3.710;2022-12-20T15:06:58;14.90;83.10
77104;DHT22;66052;43.498;3.710;2022-12-20T15:09:24;14.90;82.90
77104;DHT22;66052;43.498;3.710;2022-12-20T15:11:51;14.90;82.70
77104;DHT22;66052;43.498;3.710;2022-12-20T15:14:21;14.90;82.90
77104;DHT22;66052;43.498;3.710;2022-12-20T15:16:48;14.90;82.80
77104;DHT22;66052;43.498;3.710;2022-12-20T15:19:14;14.90;83.00
77104;DHT22;66052;43.498;3.710;2022-12-20T15:21:41;14.90;83.10
77104;DHT22;66052;43.498;3.710;2022-12-20T15:24:15;14.90;83.30
77104;DHT22;66052;43.498;3.710;2022-12-20T15:26:43;14.80;83.20
77104;DHT22;66052;43.498;3.710;2022-12-20T15:29:15;14.80;83.30
77104;DHT22;66052;43.498;3.710;2022-12-20T15:31:41;14.80;83.40
77104;DHT22;66052;43.498;3.710;2022-12-20T15:34:27;14.80;83.70
77104;DHT22;66052;43.498;3.710;2022-12-20T15:36:53;14.80;84.00
77104;DHT22;66052;43.498;3.710;2022-12-20T15:39:20;14.80;84.10
77104;DHT22;66052;43.498;3.710;2022-12-20T15:41:47;14.80;84.00
77104;DHT22;66052;43.498;3.710;2022-12-20T15:44:19;14.80;84.10
77104;DHT22;66052;43.498;3.710;2022-12-20T15:46:47;14.80;84.00
77104;DHT22;66052;43.498;3.710;2022-12-20T15:49:21;14.80;84.20
77104;DHT22;66052;43.498;3.710;2022-12-20T15:51:49;14.80;84.10
77104;DHT22;66052;43.498;3.710;2022-12-20T15:54:23;14.80;84.20
77104;DHT22;66052;43.498;3.710;2022-12-20T15:56:52;14.80;84.30
77104;DHT22;66052;43.498;3.710;2022-12-20T15:59:18;14.70;84.30
77104;DHT22;66052;43.498;3.710;2022-12-20T16:01:44;14.70;84.50
77104;DHT22;66052;43.498;3.710;2022-12-20T16:04:17;14.70;84.50
77104;DHT22;66052;43.498;3.710;2022-12-20T16:06:45;14.70;84.60
77104;DHT22;66052;43.498;3.710;2022-12-20T16:09:12;14.70;84.50
77104;DHT22;66052;43.498;3.710;2022-12-20T16:11:38;14.70;84.60
77104;DHT22;66052;43.498;3.710;2022-12-20T16:14:04;14.70;84.50
77104;DHT22;66052;43.498;3.710;2022-12-20T16:16:34;14.70;84.60
77104;DHT22;66052;43.498;3.710;2022-12-20T16:19:01;14.70;84.70
77104;DHT22;66052;43.498;3.710;2022-12-20T16:21:45;14.70;84.60
77104;DHT22;66052;43.498;3.710;2022-12-20T16:24:14;14.70;84.70
77104;DHT22;66052;43.498;3.710;2022-12-20T16:26:40;14.70;85.10
77104;DHT22;66052;43.498;3.710;2022-12-20T16:29:06;14.70;84.90
77104;DHT22;66052;43.498;3.710;2022-12-20T16:31:37;14.70;84.90
77104;DHT22;66052;43.498;3.710;2022-12-20T16:34:05;14.70;85.00
77104;DHT22;66052;43.498;3.710;2022-12-20T16:36:31;14.70;85.00
77104;DHT22;66052;43.498;3.710;2022-12-20T16:38:58;14.70;85.00
77104;DHT22;66052;43.498;3.710;2022-12-20T16:41:25;14.70;85.00
77104;DHT22;66052;43.498;3.710;2022-12-20T16:43:53;14.70;85.10
77104;DHT22;66052;43.498;3.710;2022-12-20T16:46:22;14.70;85.10
77104;DHT22;66052;43.498;3.710;2022-12-20T16:48:50;14.70;85.20
77104;DHT22;66052;43.498;3.710;2022-12-20T16:51:30;14.70;85.10
77104;DHT22;66052;43.498;3.710;2022-12-20T16:54:04;14.70;85.00
77104;DHT22;66052;43.498;3.710;2022-12-20T16:56:30;14.70;85.10
77104;DHT22;66052;43.498;3.710;2022-12-20T16:58:57;14.70;85.20
77104;DHT22;66052;43.498;3.710;2022-12-20T17:01:27;14.70;85.20
77104;DHT22;66052;43.498;3.710;2022-12-20T17:03:54;14.70;85.20
77104;DHT22;66052;43.498;3.710;2022-12-20T17:06:20;14.70;85.30
77104;DHT22;66052;43.498;3.710;2022-12-20T17:08:46;14.70;85.30
77104;DHT22;66052;43.498;3.710;2022-12-20T17:11:35;14.70;85.30
77104;DHT22;66052;43.498;3.710;2022-12-20T17:14:01;14.70;85.30
77104;DHT22;66052;43.498;3.710;2022-12-20T17:16:27;14.70;85.40
77104;DHT22;66052;43.498;3.710;2022-12-20T17:18:54;14.80;85.60
77104;DHT22;66052;43.498;3.710;2022-12-20T17:21:36;14.80;85.50
77104;DHT22;66052;43.498;3.710;2022-12-20T17:24:04;14.70;85.40
77104;DHT22;66052;43.498;3.710;2022-12-20T17:26:33;14.70;85.30
77104;DHT22;66052;43.498;3.710;2022-12-20T17:28:59;14.70;85.10
77104;DHT22;66052;43.498;3.710;2022-12-20T17:31:39;14.70;85.20
77104;DHT22;66052;43.498;3.710;2022-12-20T17:34:17;14.70;85.40
77104;DHT22;66052;43.498;3.710;2022-12-20T17:36:44;14.70;85.40
77104;DHT22;66052;43.498;3.710;2022-12-20T17:39:10;14.70;85.40
77104;DHT22;66052;43.498;3.710;2022-12-20T17:41:36;14.70;85.30
77104;DHT22;66052;43.498;3.710;2022-12-20T17:44:02;14.70;85.20